createdAt,value
2023-04-09T00:01:42.020Z,19.42
2023-04-09T00:04:09.310Z,19.15
2023-04-09T00:06:36.571Z,19.67
2023-04-09T00:09:03.743Z,19.55
2023-04-09T00:11:31.191Z,18.10
2023-04-09T00:14:02.051Z,17.92
2023-04-09T00:16:29.154Z,18.58
2023-04-09T00:18:56.391Z,18.08
2023-04-09T00:21:23.350Z,18.75
2023-04-09T00:23:50.749Z,19.00
2023-04-09T00:26:17.673Z,19.05
2023-04-09T00:28:45.334Z,19.85
2023-04-09T00:31:12.380Z,18.55
2023-04-09T00:33:39.332Z,17.35
2023-04-09T00:36:06.739Z,18.23
2023-04-09T00:38:33.872Z,17.85
2023-04-09T00:41:00.998Z,18.63
2023-04-09T00:43:29.036Z,16.48
2023-04-09T00:45:56.232Z,18.55
2023-04-09T00:48:23.462Z,19.38
2023-04-09T00:50:50.951Z,17.50
2023-04-09T00:53:18.799Z,18.02
2023-04-09T00:55:46.228Z,16.48
2023-04-09T00:58:14.314Z,18.17
2023-04-09T01:00:41.349Z,17.83
2023-04-09T01:03:08.890Z,18.08
2023-04-09T01:05:59.623Z,17.92
2023-04-09T01:08:35.631Z,18.27
2023-04-09T01:11:32.801Z,18.60
2023-04-09T01:14:20.408Z,17.55
2023-04-09T01:17:06.211Z,17.88
2023-04-09T01:19:50.145Z,18.92
2023-04-09T01:22:33.928Z,17.88
2023-04-09T01:25:15.560Z,17.60
2023-04-09T01:28:36.503Z,18.15
2023-04-09T01:31:13.985Z,17.58
2023-04-09T01:33:45.989Z,17.23
2023-04-09T01:36:14.765Z,17.92
2023-04-09T01:38:44.038Z,17.77
2023-04-09T01:41:21.603Z,17.65
2023-04-09T01:43:53.321Z,16.95
2023-04-09T01:46:22.591Z,17.23
2023-04-09T01:48:51.087Z,17.55
2023-04-09T01:51:20.218Z,16.98
2023-04-09T01:53:47.359Z,18.80
2023-04-09T01:56:14.721Z,19.13
2023-04-09T01:58:41.771Z,18.02
2023-04-09T02:01:32.234Z,19.85
2023-04-09T02:04:05.325Z,19.27
2023-04-09T02:07:06.468Z,19.02
2023-04-09T02:09:39.726Z,19.33
2023-04-09T02:12:13.919Z,19.08
2023-04-09T02:14:42.598Z,19.08
2023-04-09T02:17:09.936Z,18.75
2023-04-09T02:19:46.564Z,18.88
2023-04-09T02:22:16.298Z,20.52
2023-04-09T02:24:43.508Z,19.83
2023-04-09T02:27:10.834Z,19.15
2023-04-09T02:29:41.922Z,18.85
2023-04-09T02:32:09.000Z,19.58
2023-04-09T02:34:36.037Z,19.38
2023-04-09T02:37:03.254Z,18.98
2023-04-09T02:39:30.563Z,19.70
2023-04-09T02:41:58.142Z,20.10
2023-04-09T02:44:27.360Z,18.50
2023-04-09T02:46:56.115Z,19.05
2023-04-09T02:49:23.133Z,20.05
2023-04-09T02:51:50.432Z,19.88
2023-04-09T02:54:17.550Z,18.85
2023-04-09T02:56:44.813Z,19.25
2023-04-09T02:59:11.847Z,19.25
2023-04-09T03:01:39.016Z,19.77
2023-04-09T03:04:06.183Z,18.60
2023-04-09T03:06:33.365Z,20.83
2023-04-09T03:09:00.353Z,19.42
2023-04-09T03:11:27.775Z,19.17
2023-04-09T03:13:55.419Z,18.25
2023-04-09T03:16:26.339Z,18.60
2023-04-09T03:18:53.861Z,18.55
2023-04-09T03:21:21.599Z,18.90
2023-04-09T03:23:50.405Z,18.77
2023-04-09T03:26:17.878Z,19.10
2023-04-09T03:28:48.443Z,18.98
2023-04-09T03:31:17.251Z,18.85
2023-04-09T03:33:45.655Z,18.42
2023-04-09T03:36:12.999Z,18.05
2023-04-09T03:38:54.991Z,19.00
2023-04-09T03:41:30.503Z,16.95
2023-04-09T03:44:00.724Z,18.63
2023-04-09T03:46:33.305Z,16.77
2023-04-09T03:49:01.336Z,16.88
2023-04-09T03:51:37.056Z,18.38
2023-04-09T03:54:04.732Z,18.75
2023-04-09T03:56:32.591Z,17.40
2023-04-09T03:58:59.954Z,17.80
2023-04-09T04:01:36.336Z,17.48
2023-04-09T04:04:03.606Z,17.02
2023-04-09T04:06:41.977Z,17.27
2023-04-09T04:09:25.899Z,17.30
2023-04-09T04:11:58.704Z,18.20
2023-04-09T04:14:37.219Z,18.58
2023-04-09T04:17:15.432Z,17.92
2023-04-09T04:19:42.659Z,17.45
2023-04-09T04:22:09.841Z,19.23
2023-04-09T04:24:40.314Z,18.80
2023-04-09T04:27:08.480Z,17.92
2023-04-09T04:29:37.568Z,16.95
2023-04-09T04:32:11.180Z,18.40
2023-04-09T04:34:38.328Z,18.90
2023-04-09T04:37:21.509Z,18.17
2023-04-09T04:39:50.518Z,18.85
2023-04-09T04:42:18.177Z,16.98
2023-04-09T04:44:45.893Z,18.67
2023-04-09T04:47:27.561Z,19.30
2023-04-09T04:49:55.019Z,17.67
2023-04-09T04:52:22.475Z,19.27
2023-04-09T04:54:52.541Z,17.77
2023-04-09T04:57:23.066Z,17.98
2023-04-09T04:59:50.456Z,19.15
2023-04-09T05:02:18.219Z,17.60
2023-04-09T05:05:05.792Z,18.08
2023-04-09T05:07:38.711Z,18.83
2023-04-09T05:10:07.463Z,19.38
2023-04-09T05:12:38.586Z,19.17
2023-04-09T05:15:07.066Z,18.67
2023-04-09T05:17:34.214Z,17.13
2023-04-09T05:20:01.377Z,18.75
2023-04-09T05:22:44.310Z,18.95
2023-04-09T05:25:11.584Z,19.95
2023-04-09T05:27:41.484Z,21.02
2023-04-09T05:30:09.721Z,18.48
2023-04-09T05:32:38.324Z,18.58
2023-04-09T05:35:05.954Z,19.42
2023-04-09T05:37:38.494Z,19.30
2023-04-09T05:40:07.162Z,20.52
2023-04-09T05:42:34.336Z,18.88
2023-04-09T05:45:10.616Z,19.05
2023-04-09T05:47:38.890Z,18.00
2023-04-09T05:50:14.736Z,19.92
2023-04-09T05:52:41.698Z,21.67
2023-04-09T05:55:10.709Z,21.30
2023-04-09T05:57:45.378Z,21.45
2023-04-09T06:00:13.500Z,21.25
2023-04-09T06:02:48.383Z,20.55
2023-04-09T06:05:15.980Z,21.42
2023-04-09T06:07:43.025Z,21.30
2023-04-09T06:10:10.487Z,20.67
2023-04-09T06:12:37.708Z,20.33
2023-04-09T06:35:24.340Z,21.23
2023-04-09T06:38:50.299Z,21.35
2023-04-09T06:45:50.960Z,21.92
2023-04-09T07:07:00.522Z,21.10
2023-04-09T07:15:04.816Z,20.23
2023-04-09T07:18:05.548Z,19.40
2023-04-09T07:20:34.423Z,17.80
2023-04-09T07:23:01.608Z,18.52
2023-04-09T07:25:28.936Z,18.33
2023-04-09T07:27:56.336Z,17.55
2023-04-09T07:30:23.894Z,18.00
2023-04-09T07:32:51.788Z,15.40
2023-04-09T07:35:19.136Z,15.40
2023-04-09T07:37:46.426Z,14.05
2023-04-09T07:40:13.822Z,14.77
2023-04-09T07:42:42.764Z,14.32
2023-04-09T07:45:10.447Z,13.15
2023-04-09T07:47:40.926Z,12.93
2023-04-09T07:50:10.111Z,12.82
2023-04-09T07:52:37.422Z,12.50
2023-04-09T07:55:05.330Z,12.27
2023-04-09T07:57:33.158Z,12.68
2023-04-09T08:00:00.735Z,12.68
2023-04-09T08:02:28.308Z,13.20
2023-04-09T08:04:55.967Z,13.65
2023-04-09T08:07:23.621Z,13.40
2023-04-09T08:09:51.284Z,12.90
2023-04-09T08:12:18.604Z,12.80
2023-04-09T08:14:45.890Z,12.82
2023-04-09T08:17:13.203Z,11.73
2023-04-09T08:19:41.917Z,12.35
2023-04-09T08:22:09.882Z,11.98
2023-04-09T08:24:37.116Z,11.10
2023-04-09T08:27:04.990Z,11.63
2023-04-09T08:29:32.612Z,10.13
2023-04-09T08:31:59.881Z,9.73
2023-04-09T08:34:38.835Z,9.95
2023-04-09T08:39:58.693Z,9.43
2023-04-09T08:42:34.983Z,9.65
2023-04-09T08:45:21.763Z,9.13
2023-04-09T08:47:53.809Z,9.02
2023-04-09T08:50:27.111Z,9.27
2023-04-09T08:53:06.018Z,9.63
2023-04-09T08:55:35.818Z,8.52
2023-04-09T08:58:07.365Z,7.35
2023-04-09T09:00:34.386Z,7.35
2023-04-09T09:03:15.803Z,7.93
2023-04-09T09:10:41.225Z,6.38
2023-04-09T09:13:34.889Z,6.25
2023-04-09T09:16:24.161Z,4.95
2023-04-09T09:19:04.496Z,4.78
2023-04-09T09:21:37.755Z,4.63
2023-04-09T09:24:23.868Z,5.00
2023-04-09T09:26:59.529Z,5.15
2023-04-09T09:29:53.985Z,5.07
2023-04-09T09:32:37.905Z,4.05
2023-04-09T09:35:26.100Z,4.38
2023-04-09T09:38:07.254Z,5.05
2023-04-09T09:40:41.761Z,4.43
2023-04-09T09:43:31.712Z,5.07
2023-04-09T09:46:32.256Z,4.38
2023-04-09T09:49:09.001Z,4.68
2023-04-09T09:52:11.917Z,4.32
2023-04-09T09:55:14.600Z,5.32
2023-04-09T09:58:04.157Z,5.18
2023-04-09T10:00:48.326Z,5.10
2023-04-09T10:03:37.585Z,4.95
2023-04-09T10:06:37.231Z,5.25
2023-04-09T10:09:18.466Z,5.43
2023-04-09T10:11:51.791Z,4.22
2023-04-09T10:14:22.614Z,5.15
2023-04-09T10:16:51.604Z,4.90
2023-04-09T10:19:19.439Z,4.82
2023-04-09T10:22:04.531Z,4.88
2023-04-09T10:24:35.659Z,4.35
2023-04-09T10:27:16.443Z,5.10
2023-04-09T10:29:49.781Z,5.07
2023-04-09T10:32:26.801Z,4.30
2023-04-09T10:34:59.331Z,4.78
2023-04-09T10:37:28.741Z,4.63
2023-04-09T10:39:58.045Z,4.50
2023-04-09T10:42:41.861Z,4.40
2023-04-09T10:45:12.205Z,4.43
2023-04-09T10:47:43.298Z,4.47
2023-04-09T10:50:26.093Z,4.45
2023-04-09T10:52:57.482Z,4.80
2023-04-09T10:55:37.813Z,4.15
2023-04-09T10:58:12.272Z,4.50
2023-04-09T11:00:43.178Z,4.50
2023-04-09T11:03:32.071Z,4.40
2023-04-09T11:06:10.746Z,4.85
2023-04-09T11:08:59.194Z,4.63
2023-04-09T11:11:43.246Z,4.22
2023-04-09T11:14:20.429Z,4.70
2023-04-09T11:16:50.896Z,4.25
2023-04-09T11:19:20.897Z,4.20
2023-04-09T11:21:51.089Z,4.50
2023-04-09T11:24:19.376Z,4.30
2023-04-09T11:26:48.569Z,4.15
2023-04-09T11:29:15.641Z,4.80
2023-04-09T11:31:45.167Z,4.60
2023-04-09T11:34:12.438Z,4.30
2023-04-09T11:36:39.450Z,4.22
2023-04-09T11:39:06.566Z,4.10
2023-04-09T11:41:38.651Z,4.03
2023-04-09T11:44:08.774Z,4.40
2023-04-09T11:46:36.743Z,4.50
2023-04-09T11:49:04.296Z,4.10
2023-04-09T11:51:32.679Z,4.53
2023-04-09T11:54:03.674Z,4.55
2023-04-09T11:56:31.365Z,3.95
2023-04-09T11:58:59.307Z,3.50
2023-04-09T12:01:34.218Z,3.85
2023-04-09T12:04:01.825Z,4.38
2023-04-09T12:06:30.149Z,3.92
2023-04-09T12:08:59.525Z,4.32
2023-04-09T12:11:32.495Z,4.20
2023-04-09T12:14:04.983Z,3.88
2023-04-09T12:16:35.844Z,4.13
2023-04-09T12:19:11.339Z,4.38
2023-04-09T12:21:52.008Z,4.60
2023-04-09T12:24:21.611Z,4.72
2023-04-09T12:26:50.438Z,4.18
2023-04-09T12:29:21.245Z,4.13
2023-04-09T12:31:48.499Z,4.25
2023-04-09T12:34:15.559Z,4.60
2023-04-09T12:36:42.608Z,4.78
2023-04-09T12:39:10.533Z,4.47
2023-04-09T12:41:37.872Z,4.40
2023-04-09T12:44:05.273Z,4.88
2023-04-09T12:46:32.715Z,4.88
2023-04-09T12:49:00.094Z,4.25
2023-04-09T12:51:27.045Z,4.20
2023-04-09T12:53:54.079Z,4.53
2023-04-09T12:56:21.286Z,4.70
2023-04-09T12:58:48.256Z,4.40
2023-04-09T13:01:15.232Z,4.97
2023-04-09T13:03:42.464Z,4.60
2023-04-09T13:06:09.686Z,4.18
2023-04-09T13:08:36.688Z,4.90
2023-04-09T13:11:04.462Z,4.75
2023-04-09T13:13:31.665Z,5.00
2023-04-09T13:15:58.801Z,4.63
2023-04-09T13:18:26.164Z,4.85
2023-04-09T13:20:53.214Z,4.43
2023-04-09T13:23:20.240Z,4.70
2023-04-09T13:25:47.163Z,5.10
2023-04-09T13:28:14.137Z,4.90
2023-04-09T13:30:41.235Z,5.00
2023-04-09T13:33:08.307Z,5.22
2023-04-09T13:35:35.809Z,5.15
2023-04-09T13:38:02.784Z,5.32
2023-04-09T13:40:29.856Z,4.60
2023-04-09T13:42:56.759Z,4.53
2023-04-09T13:45:24.025Z,4.72
2023-04-09T13:47:51.151Z,5.10
2023-04-09T13:50:18.472Z,4.60
2023-04-09T13:52:45.544Z,4.35
2023-04-09T13:55:12.599Z,4.00
2023-04-09T13:57:39.509Z,4.43
2023-04-09T14:00:08.188Z,5.20
2023-04-09T14:02:35.339Z,4.40
2023-04-09T14:05:03.962Z,5.13
2023-04-09T14:07:31.024Z,4.88
2023-04-09T14:09:58.338Z,4.03
2023-04-09T14:12:25.253Z,4.47
2023-04-09T14:14:52.453Z,4.28
2023-04-09T14:17:19.630Z,4.10
2023-04-09T14:19:46.589Z,4.35
2023-04-09T14:22:14.195Z,4.72
2023-04-09T14:24:41.315Z,4.55
2023-04-09T14:27:09.075Z,4.43
2023-04-09T14:29:36.577Z,4.63
2023-04-09T14:32:03.731Z,4.43
2023-04-09T14:34:33.908Z,4.68
2023-04-09T14:37:00.874Z,4.65
2023-04-09T14:39:27.844Z,4.90
2023-04-09T14:41:56.984Z,3.88
2023-04-09T14:44:26.730Z,4.25
2023-04-09T14:46:57.678Z,4.47
2023-04-09T14:49:24.777Z,4.57
2023-04-09T14:51:51.993Z,4.50
2023-04-09T14:54:18.969Z,4.30
2023-04-09T14:56:46.241Z,4.40
2023-04-09T14:59:13.738Z,4.47
2023-04-09T15:01:40.996Z,4.80
2023-04-09T15:04:08.411Z,4.97
2023-04-09T15:06:35.630Z,3.95
2023-04-09T15:09:02.872Z,3.55
2023-04-09T15:11:30.059Z,4.93
2023-04-09T15:13:57.968Z,4.65
2023-04-09T15:16:28.356Z,4.70
2023-04-09T15:18:58.614Z,4.53
2023-04-09T15:21:27.225Z,4.13
2023-04-09T15:23:55.022Z,4.13
2023-04-09T15:26:22.383Z,4.15
2023-04-09T15:28:49.497Z,4.28
2023-04-09T15:31:16.791Z,3.60
2023-04-09T15:33:44.689Z,3.80
2023-04-09T15:36:11.972Z,4.07
2023-04-09T15:38:39.125Z,4.03
2023-04-09T15:41:06.184Z,4.07
2023-04-09T15:43:33.164Z,3.85
2023-04-09T15:46:07.397Z,3.55
2023-04-09T15:48:34.508Z,4.10
2023-04-09T15:51:01.484Z,3.85
2023-04-09T15:53:29.244Z,4.25
2023-04-09T15:55:56.928Z,3.58
2023-04-09T15:58:24.179Z,3.47
2023-04-09T16:00:51.678Z,3.95
2023-04-09T16:03:19.822Z,4.05
2023-04-09T16:05:47.717Z,3.80
2023-04-09T16:08:33.870Z,3.70
2023-04-09T16:11:01.472Z,3.50
2023-04-09T16:13:28.673Z,3.03
2023-04-09T16:15:55.856Z,3.40
2023-04-09T16:18:23.741Z,12.02
2023-04-09T16:20:55.066Z,4.18
2023-04-09T16:23:24.185Z,3.80
2023-04-09T16:25:52.208Z,3.75
2023-04-09T16:28:23.752Z,3.42
2023-04-09T16:30:50.946Z,3.10
2023-04-09T16:33:17.943Z,3.20
2023-04-09T16:35:44.966Z,3.50
2023-04-09T16:38:13.268Z,3.33
2023-04-09T16:40:40.732Z,3.30
2023-04-09T16:43:07.788Z,3.78
2023-04-09T16:45:35.554Z,4.28
2023-04-09T16:48:02.913Z,3.65
2023-04-09T16:50:29.994Z,3.10
2023-04-09T16:52:57.067Z,3.50
2023-04-09T16:55:24.074Z,3.92
2023-04-09T16:57:51.040Z,3.35
2023-04-09T17:00:18.142Z,3.53
2023-04-09T17:02:46.241Z,3.60
2023-04-09T17:05:13.533Z,3.38
2023-04-09T17:07:41.216Z,3.78
2023-04-09T17:10:09.035Z,3.85
2023-04-09T17:12:36.941Z,3.45
2023-04-09T17:15:08.083Z,3.45
2023-04-09T17:17:35.880Z,3.50
2023-04-09T17:20:04.572Z,3.80
2023-04-09T17:22:32.205Z,3.80
2023-04-09T17:24:59.776Z,3.70
2023-04-09T17:27:27.542Z,3.53
2023-04-09T17:29:54.989Z,10.50
2023-04-09T17:32:22.434Z,7.95
2023-04-09T17:34:49.607Z,5.50
2023-04-09T17:37:16.881Z,4.30
2023-04-09T17:39:44.149Z,4.05
2023-04-09T17:42:14.563Z,3.53
2023-04-09T17:44:44.032Z,3.90
2023-04-09T17:47:12.518Z,4.40
2023-04-09T17:49:39.959Z,5.13
2023-04-09T17:52:07.000Z,4.40
2023-04-09T17:54:35.016Z,4.97
2023-04-09T17:57:04.113Z,4.68
2023-04-09T17:59:32.515Z,4.85
2023-04-09T18:01:59.903Z,5.10
2023-04-09T18:04:27.412Z,17.17
2023-04-09T18:06:56.094Z,4.68
2023-04-09T18:09:23.198Z,4.50
2023-04-09T18:11:54.973Z,4.30
2023-04-09T18:14:23.177Z,3.88
2023-04-09T18:16:50.196Z,4.03
2023-04-09T18:19:17.374Z,4.57
2023-04-09T18:21:44.364Z,4.00
2023-04-09T18:24:11.639Z,4.15
2023-04-09T18:26:38.561Z,3.72
2023-04-09T18:29:06.118Z,4.38
2023-04-09T18:31:33.219Z,4.55
2023-04-09T18:34:00.757Z,4.68
2023-04-09T18:36:28.350Z,4.63
2023-04-09T18:38:56.345Z,4.22
2023-04-09T18:41:27.375Z,4.78
2023-04-09T18:43:55.648Z,5.05
2023-04-09T18:46:23.820Z,4.80
2023-04-09T18:48:50.977Z,5.07
2023-04-09T18:51:20.281Z,4.90
2023-04-09T18:53:52.941Z,5.20
2023-04-09T18:56:21.107Z,4.90
2023-04-09T18:58:48.704Z,5.40
2023-04-09T19:01:17.497Z,5.40
2023-04-09T19:03:44.932Z,5.40
2023-04-09T19:06:14.825Z,5.20
2023-04-09T19:08:42.265Z,5.28
2023-04-09T19:11:09.419Z,5.05
2023-04-09T19:13:37.879Z,5.25
2023-04-09T19:16:07.167Z,5.47
2023-04-09T19:18:34.456Z,4.78
2023-04-09T19:21:01.613Z,5.18
2023-04-09T19:23:28.594Z,5.60
2023-04-09T19:25:55.907Z,5.63
2023-04-09T19:28:23.487Z,5.70
2023-04-09T19:30:54.533Z,5.50
2023-04-09T19:33:26.963Z,5.72
2023-04-09T19:35:55.812Z,5.28
2023-04-09T19:38:23.205Z,5.47
2023-04-09T19:40:50.295Z,6.15
2023-04-09T19:43:17.339Z,5.32
2023-04-09T19:45:44.389Z,4.47
2023-04-09T19:48:13.006Z,4.85
2023-04-09T19:50:41.188Z,4.82
2023-04-09T19:53:08.616Z,4.68
2023-04-09T19:55:36.119Z,4.57
2023-04-09T19:58:03.489Z,5.07
2023-04-09T20:00:33.061Z,5.28
2023-04-09T20:03:01.016Z,5.32
2023-04-09T20:05:28.867Z,5.32
2023-04-09T20:07:55.816Z,5.13
2023-04-09T20:10:23.546Z,5.35
2023-04-09T20:12:51.878Z,5.25
2023-04-09T20:15:22.619Z,5.00
2023-04-09T20:17:50.955Z,5.90
2023-04-09T20:20:19.826Z,5.20
2023-04-09T20:22:55.599Z,5.90
2023-04-09T20:25:24.401Z,5.25
2023-04-09T20:27:54.841Z,6.00
2023-04-09T20:30:22.546Z,5.95
2023-04-09T20:32:49.808Z,6.25
2023-04-09T20:35:17.028Z,5.97
2023-04-09T20:37:44.233Z,5.20
2023-04-09T20:40:14.036Z,5.97
2023-04-09T20:42:41.828Z,6.30
2023-04-09T20:45:09.856Z,6.30
2023-04-09T20:47:36.961Z,6.03
2023-04-09T20:50:05.078Z,6.57
2023-04-09T20:52:32.329Z,6.68
2023-04-09T20:54:59.613Z,7.32
2023-04-09T20:57:27.116Z,6.50
2023-04-09T20:59:54.334Z,7.03
2023-04-09T21:02:21.827Z,6.95
2023-04-09T21:04:48.940Z,7.25
2023-04-09T21:07:16.150Z,6.18
2023-04-09T21:09:43.228Z,7.28
2023-04-09T21:12:10.290Z,8.00
2023-04-09T21:14:37.320Z,7.82
2023-04-09T21:17:04.348Z,7.35
2023-04-09T21:19:31.496Z,8.15
2023-04-09T21:21:58.585Z,7.35
2023-04-09T21:24:26.834Z,8.25
2023-04-09T21:26:54.334Z,7.55
2023-04-09T21:29:21.816Z,7.85
2023-04-09T21:31:50.029Z,7.82
2023-04-09T21:34:17.402Z,7.38
2023-04-09T21:36:45.351Z,7.82
2023-04-09T21:39:13.037Z,7.85
2023-04-09T21:41:40.139Z,7.47
2023-04-09T21:44:09.864Z,7.80
2023-04-09T21:46:37.557Z,7.53
2023-04-09T21:49:05.113Z,7.97
2023-04-09T21:51:32.547Z,8.20
2023-04-09T21:54:09.027Z,8.15
2023-04-09T21:56:39.627Z,7.90
2023-04-09T21:59:07.366Z,8.10
2023-04-09T22:01:35.342Z,8.40
2023-04-09T22:04:03.068Z,7.93
2023-04-09T22:06:30.942Z,7.65
2023-04-09T22:08:58.376Z,8.52
2023-04-09T22:11:28.405Z,8.13
2023-04-09T22:13:57.215Z,7.32
2023-04-09T22:16:25.896Z,7.78
2023-04-09T22:18:54.725Z,7.60
2023-04-09T22:21:22.344Z,7.78
2023-04-09T22:23:49.561Z,8.52
2023-04-09T22:26:16.939Z,7.80
2023-04-09T22:28:44.095Z,8.15
2023-04-09T22:31:11.146Z,7.75
2023-04-09T22:33:38.092Z,8.07
2023-04-09T22:36:06.492Z,7.88
2023-04-09T22:38:34.424Z,7.65
2023-04-09T22:41:01.579Z,8.02
2023-04-09T22:43:28.591Z,8.05
2023-04-09T22:45:57.186Z,8.13
2023-04-09T22:48:24.297Z,8.15
2023-04-09T22:50:51.543Z,8.25
2023-04-09T22:53:19.245Z,8.10
2023-04-09T22:55:51.489Z,8.35
2023-04-09T22:58:19.161Z,8.60
2023-04-09T23:00:47.702Z,8.05
2023-04-09T23:03:15.043Z,8.93
2023-04-09T23:05:42.733Z,7.50
2023-04-09T23:08:10.398Z,7.82
2023-04-09T23:10:37.390Z,8.70
2023-04-09T23:13:04.436Z,7.97
2023-04-09T23:15:31.761Z,8.23
2023-04-09T23:17:58.795Z,7.85
2023-04-09T23:20:26.591Z,7.40
2023-04-09T23:22:53.595Z,8.00
2023-04-09T23:25:21.869Z,7.53
2023-04-09T23:27:49.202Z,8.35
2023-04-09T23:30:17.119Z,8.20
2023-04-09T23:32:45.359Z,8.30
2023-04-09T23:35:12.857Z,7.85
2023-04-09T23:37:42.486Z,7.90
2023-04-09T23:40:11.160Z,7.93
2023-04-09T23:42:38.356Z,7.95
2023-04-09T23:45:06.644Z,8.57
2023-04-09T23:47:36.561Z,8.50
2023-04-09T23:50:08.385Z,7.78
2023-04-09T23:52:37.921Z,7.70
2023-04-09T23:55:09.819Z,7.45
2023-04-09T23:57:37.715Z,7.50
